sensor_id;sensor_type;location;lat;lon;timestamp;temperature;humidity
39825;DHT22;25503;52.532;13.640;2023-07-22T00:00:29;13.60;99.90
39825;DHT22;25503;52.532;13.640;2023-07-22T00:02:54;13.60;99.90
39825;DHT22;25503;52.532;13.640;2023-07-22T00:05:20;13.60;99.90
39825;DHT22;25503;52.532;13.640;2023-07-22T00:07:49;13.60;99.90
39825;DHT22;25503;52.532;13.640;2023-07-22T00:10:16;13.60;99.90
39825;DHT22;25503;52.532;13.640;2023-07-22T00:12:42;13.50;99.90
39825;DHT22;25503;52.532;13.640;2023-07-22T00:15:08;13.50;99.90
39825;DHT22;25503;52.532;13.640;2023-07-22T00:17:37;13.50;99.90
39825;DHT22;25503;52.532;13.640;2023-07-22T00:20:03;13.50;99.90
39825;DHT22;25503;52.532;13.640;2023-07-22T00:22:30;13.50;99.90
39825;DHT22;25503;52.532;13.640;2023-07-22T00:24:55;13.50;99.90
39825;DHT22;25503;52.532;13.640;2023-07-22T00:27:21;13.50;99.90
39825;DHT22;25503;52.532;13.640;2023-07-22T00:29:46;13.50;99.90
39825;DHT22;25503;52.532;13.640;2023-07-22T00:32:12;13.50;99.90
39825;DHT22;25503;52.532;13.640;2023-07-22T00:34:39;13.50;99.90
39825;DHT22;25503;52.532;13.640;2023-07-22T00:37:04;13.50;99.90
39825;DHT22;25503;52.532;13.640;2023-07-22T00:39:30;13.50;99.90
39825;DHT22;25503;52.532;13.640;2023-07-22T00:41:56;13.40;99.90
39825;DHT22;25503;52.532;13.640;2023-07-22T00:44:21;13.50;99.90
39825;DHT22;25503;52.532;13.640;2023-07-22T00:46:47;13.50;99.90
39825;DHT22;25503;52.532;13.640;2023-07-22T00:49:14;13.50;99.90
39825;DHT22;25503;52.532;13.640;2023-07-22T00:51:40;13.50;99.90
39825;DHT22;25503;52.532;13.640;2023-07-22T00:54:06;13.50;99.90
39825;DHT22;25503;52.532;13.640;2023-07-22T00:56:35;13.50;99.90
39825;DHT22;25503;52.532;13.640;2023-07-22T00:59:01;13.50;99.90
39825;DHT22;25503;52.532;13.640;2023-07-22T01:01:27;13.50;99.90
39825;DHT22;25503;52.532;13.640;2023-07-22T01:03:53;13.50;99.90
39825;DHT22;25503;52.532;13.640;2023-07-22T01:06:19;13.50;99.90
39825;DHT22;25503;52.532;13.640;2023-07-22T01:08:45;13.50;99.90
39825;DHT22;25503;52.532;13.640;2023-07-22T01:11:12;13.50;99.90
39825;DHT22;25503;52.532;13.640;2023-07-22T01:13:38;13.50;99.90
39825;DHT22;25503;52.532;13.640;2023-07-22T01:16:05;13.50;99.90
39825;DHT22;25503;52.532;13.640;2023-07-22T01:18:32;13.50;99.90
39825;DHT22;25503;52.532;13.640;2023-07-22T01:20:58;13.50;99.90
39825;DHT22;25503;52.532;13.640;2023-07-22T01:23:24;13.50;99.90
39825;DHT22;25503;52.532;13.640;2023-07-22T01:25:50;13.50;99.90
39825;DHT22;25503;52.532;13.640;2023-07-22T01:28:17;13.60;99.90
39825;DHT22;25503;52.532;13.640;2023-07-22T01:30:42;13.60;99.90
39825;DHT22;25503;52.532;13.640;2023-07-22T01:33:08;13.60;99.90
39825;DHT22;25503;52.532;13.640;2023-07-22T01:35:33;13.60;99.90
39825;DHT22;25503;52.532;13.640;2023-07-22T01:37:59;13.60;99.90
39825;DHT22;25503;52.532;13.640;2023-07-22T01:40:25;13.60;99.90
39825;DHT22;25503;52.532;13.640;2023-07-22T01:42:51;13.60;99.90
39825;DHT22;25503;52.532;13.640;2023-07-22T01:45:17;13.70;99.90
39825;DHT22;25503;52.532;13.640;2023-07-22T01:47:42;13.60;99.90
39825;DHT22;25503;52.532;13.640;2023-07-22T01:50:08;13.70;99.90
39825;DHT22;25503;52.532;13.640;2023-07-22T01:52:35;13.70;99.90
39825;DHT22;25503;52.532;13.640;2023-07-22T01:55:01;13.70;99.90
39825;DHT22;25503;52.532;13.640;2023-07-22T01:57:31;13.70;99.90
39825;DHT22;25503;52.532;13.640;2023-07-22T01:59:56;13.70;99.90
39825;DHT22;25503;52.532;13.640;2023-07-22T02:02:22;13.70;99.90
39825;DHT22;25503;52.532;13.640;2023-07-22T02:04:48;13.80;99.90
39825;DHT22;25503;52.532;13.640;2023-07-22T02:07:13;13.80;99.90
39825;DHT22;25503;52.532;13.640;2023-07-22T02:09:39;13.80;99.90
39825;DHT22;25503;52.532;13.640;2023-07-22T02:12:05;13.80;99.90
39825;DHT22;25503;52.532;13.640;2023-07-22T02:14:32;13.90;99.90
39825;DHT22;25503;52.532;13.640;2023-07-22T02:16:58;13.90;99.90
39825;DHT22;25503;52.532;13.640;2023-07-22T02:19:24;14.00;99.90
39825;DHT22;25503;52.532;13.640;2023-07-22T02:21:50;14.00;99.90
39825;DHT22;25503;52.532;13.640;2023-07-22T02:24:15;14.10;99.90
39825;DHT22;25503;52.532;13.640;2023-07-22T02:26:41;14.10;99.90
39825;DHT22;25503;52.532;13.640;2023-07-22T02:29:06;14.10;99.90
39825;DHT22;25503;52.532;13.640;2023-07-22T02:31:33;14.20;99.90
39825;DHT22;25503;52.532;13.640;2023-07-22T02:33:59;14.20;99.90
39825;DHT22;25503;52.532;13.640;2023-07-22T02:36:24;14.20;99.90
39825;DHT22;25503;52.532;13.640;2023-07-22T02:38:50;14.20;99.90
39825;DHT22;25503;52.532;13.640;2023-07-22T02:41:15;14.20;99.90
39825;DHT22;25503;52.532;13.640;2023-07-22T02:43:41;14.30;99.90
39825;DHT22;25503;52.532;13.640;2023-07-22T02:46:07;14.30;99.90
39825;DHT22;25503;52.532;13.640;2023-07-22T02:48:33;14.20;99.90
39825;DHT22;25503;52.532;13.640;2023-07-22T02:51:09;14.20;99.90
39825;DHT22;25503;52.532;13.640;2023-07-22T02:53:36;14.20;99.90
39825;DHT22;25503;52.532;13.640;2023-07-22T02:56:03;14.20;99.90
39825;DHT22;25503;52.532;13.640;2023-07-22T02:58:29;14.20;99.90
39825;DHT22;25503;52.532;13.640;2023-07-22T03:00:55;14.20;99.90
39825;DHT22;25503;52.532;13.640;2023-07-22T03:03:23;14.10;99.90
39825;DHT22;25503;52.532;13.640;2023-07-22T03:05:48;14.10;99.90
39825;DHT22;25503;52.532;13.640;2023-07-22T03:08:14;14.10;99.90
39825;DHT22;25503;52.532;13.640;2023-07-22T03:10:40;14.10;99.90
39825;DHT22;25503;52.532;13.640;2023-07-22T03:13:06;14.00;99.90
39825;DHT22;25503;52.532;13.640;2023-07-22T03:15:32;14.00;99.90
39825;DHT22;25503;52.532;13.640;2023-07-22T03:17:58;14.00;99.90
39825;DHT22;25503;52.532;13.640;2023-07-22T03:20:25;13.90;99.90
39825;DHT22;25503;52.532;13.640;2023-07-22T03:22:51;13.90;99.90
39825;DHT22;25503;52.532;13.640;2023-07-22T03:25:17;13.90;99.90
39825;DHT22;25503;52.532;13.640;2023-07-22T03:27:43;13.90;99.90
39825;DHT22;25503;52.532;13.640;2023-07-22T03:30:12;13.90;99.90
39825;DHT22;25503;52.532;13.640;2023-07-22T03:32:40;13.80;99.90
39825;DHT22;25503;52.532;13.640;2023-07-22T03:35:07;13.80;99.90
39825;DHT22;25503;52.532;13.640;2023-07-22T03:37:34;13.80;99.90
39825;DHT22;25503;52.532;13.640;2023-07-22T03:40:02;13.80;99.90
39825;DHT22;25503;52.532;13.640;2023-07-22T03:42:29;13.80;99.90
39825;DHT22;25503;52.532;13.640;2023-07-22T03:44:54;13.70;99.90
39825;DHT22;25503;52.532;13.640;2023-07-22T03:47:20;13.70;99.90
39825;DHT22;25503;52.532;13.640;2023-07-22T03:49:45;13.70;99.90
39825;DHT22;25503;52.532;13.640;2023-07-22T03:52:11;13.70;99.90
39825;DHT22;25503;52.532;13.640;2023-07-22T03:54:39;13.70;99.90
39825;DHT22;25503;52.532;13.640;2023-07-22T03:57:05;13.70;99.90
39825;DHT22;25503;52.532;13.640;2023-07-22T03:59:31;13.70;99.90
39825;DHT22;25503;52.532;13.640;2023-07-22T04:01:57;13.70;99.90
39825;DHT22;25503;52.532;13.640;2023-07-22T04:04:23;13.70;99.90
39825;DHT22;25503;52.532;13.640;2023-07-22T04:06:48;13.70;99.90
39825;DHT22;25503;52.532;13.640;2023-07-22T04:09:14;13.70;99.90
39825;DHT22;25503;52.532;13.640;2023-07-22T04:11:39;13.70;99.90
39825;DHT22;25503;52.532;13.640;2023-07-22T04:14:05;13.70;99.90
39825;DHT22;25503;52.532;13.640;2023-07-22T04:16:30;13.70;99.90
39825;DHT22;25503;52.532;13.640;2023-07-22T04:18:56;13.70;99.90
39825;DHT22;25503;52.532;13.640;2023-07-22T04:21:22;13.70;99.90
39825;DHT22;25503;52.532;13.640;2023-07-22T04:23:47;13.70;99.90
39825;DHT22;25503;52.532;13.640;2023-07-22T04:26:14;13.70;99.90
39825;DHT22;25503;52.532;13.640;2023-07-22T04:28:40;13.80;99.90
39825;DHT22;25503;52.532;13.640;2023-07-22T04:31:05;13.80;99.90
39825;DHT22;25503;52.532;13.640;2023-07-22T04:33:31;13.80;99.90
39825;DHT22;25503;52.532;13.640;2023-07-22T04:35:59;13.80;99.90
39825;DHT22;25503;52.532;13.640;2023-07-22T04:38:25;13.80;99.90
39825;DHT22;25503;52.532;13.640;2023-07-22T04:40:50;13.80;99.90
39825;DHT22;25503;52.532;13.640;2023-07-22T04:43:16;13.80;99.90
39825;DHT22;25503;52.532;13.640;2023-07-22T04:45:44;13.90;99.90
39825;DHT22;25503;52.532;13.640;2023-07-22T04:48:10;13.90;99.90
39825;DHT22;25503;52.532;13.640;2023-07-22T04:50:36;13.90;99.90
39825;DHT22;25503;52.532;13.640;2023-07-22T04:53:06;14.00;99.90
39825;DHT22;25503;52.532;13.640;2023-07-22T04:55:32;14.00;99.90
39825;DHT22;25503;52.532;13.640;2023-07-22T04:57:58;14.00;99.90
39825;DHT22;25503;52.532;13.640;2023-07-22T05:00:23;14.10;99.90
39825;DHT22;25503;52.532;13.640;2023-07-22T05:02:49;14.20;99.90
39825;DHT22;25503;52.532;13.640;2023-07-22T05:05:17;14.20;99.90
39825;DHT22;25503;52.532;13.640;2023-07-22T05:07:43;14.20;99.90
39825;DHT22;25503;52.532;13.640;2023-07-22T05:10:10;14.30;99.90
39825;DHT22;25503;52.532;13.640;2023-07-22T05:12:41;14.40;99.90
39825;DHT22;25503;52.532;13.640;2023-07-22T05:15:07;14.40;99.90
39825;DHT22;25503;52.532;13.640;2023-07-22T05:17:33;14.50;99.90
39825;DHT22;25503;52.532;13.640;2023-07-22T05:19:59;14.60;99.90
39825;DHT22;25503;52.532;13.640;2023-07-22T05:22:25;14.60;99.90
39825;DHT22;25503;52.532;13.640;2023-07-22T05:24:50;14.70;99.90
39825;DHT22;25503;52.532;13.640;2023-07-22T05:27:17;14.70;99.90
39825;DHT22;25503;52.532;13.640;2023-07-22T05:29:42;14.80;99.90
39825;DHT22;25503;52.532;13.640;2023-07-22T05:32:08;14.90;99.90
39825;DHT22;25503;52.532;13.640;2023-07-22T05:34:34;14.90;99.90
39825;DHT22;25503;52.532;13.640;2023-07-22T05:36:59;15.00;99.90
39825;DHT22;25503;52.532;13.640;2023-07-22T05:39:25;15.00;99.90
39825;DHT22;25503;52.532;13.640;2023-07-22T05:41:51;15.10;99.90
39825;DHT22;25503;52.532;13.640;2023-07-22T05:44:17;15.10;99.90
39825;DHT22;25503;52.532;13.640;2023-07-22T05:46:42;15.20;99.90
39825;DHT22;25503;52.532;13.640;2023-07-22T05:49:09;15.20;99.90
39825;DHT22;25503;52.532;13.640;2023-07-22T05:51:34;15.30;99.90
39825;DHT22;25503;52.532;13.640;2023-07-22T05:54:01;15.30;99.90
39825;DHT22;25503;52.532;13.640;2023-07-22T05:56:26;15.30;99.90
39825;DHT22;25503;52.532;13.640;2023-07-22T05:58:52;15.30;99.90
39825;DHT22;25503;52.532;13.640;2023-07-22T06:01:19;15.40;99.90
39825;DHT22;25503;52.532;13.640;2023-07-22T06:03:45;15.40;99.90
39825;DHT22;25503;52.532;13.640;2023-07-22T06:06:10;15.40;99.90
39825;DHT22;25503;52.532;13.640;2023-07-22T06:08:36;15.40;99.90
39825;DHT22;25503;52.532;13.640;2023-07-22T06:11:02;15.50;99.90
39825;DHT22;25503;52.532;13.640;2023-07-22T06:13:27;15.50;99.90
39825;DHT22;25503;52.532;13.640;2023-07-22T06:15:53;15.50;99.90
39825;DHT22;25503;52.532;13.640;2023-07-22T06:18:18;15.60;99.90
39825;DHT22;25503;52.532;13.640;2023-07-22T06:20:45;15.60;99.90
39825;DHT22;25503;52.532;13.640;2023-07-22T06:23:10;15.60;99.90
39825;DHT22;25503;52.532;13.640;2023-07-22T06:25:36;15.60;99.90
39825;DHT22;25503;52.532;13.640;2023-07-22T06:28:03;15.70;99.90
39825;DHT22;25503;52.532;13.640;2023-07-22T06:30:28;15.70;99.90
39825;DHT22;25503;52.532;13.640;2023-07-22T06:32:54;15.80;99.90
39825;DHT22;25503;52.532;13.640;2023-07-22T06:35:20;15.80;99.90
39825;DHT22;25503;52.532;13.640;2023-07-22T06:37:45;15.90;99.90
39825;DHT22;25503;52.532;13.640;2023-07-22T06:40:11;15.90;99.90
39825;DHT22;25503;52.532;13.640;2023-07-22T06:42:37;15.90;99.90
39825;DHT22;25503;52.532;13.640;2023-07-22T06:45:04;15.90;99.90
39825;DHT22;25503;52.532;13.640;2023-07-22T06:47:29;16.00;99.90
39825;DHT22;25503;52.532;13.640;2023-07-22T06:49:55;15.90;99.90
39825;DHT22;25503;52.532;13.640;2023-07-22T06:52:21;16.00;99.90
39825;DHT22;25503;52.532;13.640;2023-07-22T06:54:46;16.10;99.90
39825;DHT22;25503;52.532;13.640;2023-07-22T06:57:12;16.20;99.90
39825;DHT22;25503;52.532;13.640;2023-07-22T06:59:37;16.20;99.90
39825;DHT22;25503;52.532;13.640;2023-07-22T07:02:04;16.20;99.90
39825;DHT22;25503;52.532;13.640;2023-07-22T07:04:33;16.30;99.90
39825;DHT22;25503;52.532;13.640;2023-07-22T07:06:58;16.30;99.90
39825;DHT22;25503;52.532;13.640;2023-07-22T07:09:24;16.30;99.90
39825;DHT22;25503;52.532;13.640;2023-07-22T07:11:50;16.50;99.90
39825;DHT22;25503;52.532;13.640;2023-07-22T07:14:17;16.60;99.90
39825;DHT22;25503;52.532;13.640;2023-07-22T07:16:43;16.60;99.90
39825;DHT22;25503;52.532;13.640;2023-07-22T07:19:09;16.60;99.90
39825;DHT22;25503;52.532;13.640;2023-07-22T07:21:35;16.60;99.90
39825;DHT22;25503;52.532;13.640;2023-07-22T07:24:01;16.70;99.90
39825;DHT22;25503;52.532;13.640;2023-07-22T07:26:28;16.80;99.90
39825;DHT22;25503;52.532;13.640;2023-07-22T07:28:53;16.90;99.90
39825;DHT22;25503;52.532;13.640;2023-07-22T07:31:19;16.90;99.90
39825;DHT22;25503;52.532;13.640;2023-07-22T07:33:45;17.00;99.90
39825;DHT22;25503;52.532;13.640;2023-07-22T07:36:10;17.00;99.90
39825;DHT22;25503;52.532;13.640;2023-07-22T07:38:36;17.00;99.90
39825;DHT22;25503;52.532;13.640;2023-07-22T07:41:03;17.10;99.90
39825;DHT22;25503;52.532;13.640;2023-07-22T07:43:30;17.10;99.90
39825;DHT22;25503;52.532;13.640;2023-07-22T07:46:25;17.20;99.90
39825;DHT22;25503;52.532;13.640;2023-07-22T07:48:52;17.30;99.90
39825;DHT22;25503;52.532;13.640;2023-07-22T07:51:19;17.30;99.90
39825;DHT22;25503;52.532;13.640;2023-07-22T07:53:46;17.30;99.90
39825;DHT22;25503;52.532;13.640;2023-07-22T07:56:15;17.30;99.90
39825;DHT22;25503;52.532;13.640;2023-07-22T07:58:41;17.30;99.90
39825;DHT22;25503;52.532;13.640;2023-07-22T08:01:07;17.30;99.90
39825;DHT22;25503;52.532;13.640;2023-07-22T08:03:34;17.30;99.90
39825;DHT22;25503;52.532;13.640;2023-07-22T08:06:00;17.40;99.90
39825;DHT22;25503;52.532;13.640;2023-07-22T08:08:26;17.40;99.90
39825;DHT22;25503;52.532;13.640;2023-07-22T08:11:18;17.40;99.90
39825;DHT22;25503;52.532;13.640;2023-07-22T08:13:44;17.50;99.90
39825;DHT22;25503;52.532;13.640;2023-07-22T08:16:12;17.60;99.90
39825;DHT22;25503;52.532;13.640;2023-07-22T08:18:38;17.70;99.90
39825;DHT22;25503;52.532;13.640;2023-07-22T08:21:04;17.80;99.90
39825;DHT22;25503;52.532;13.640;2023-07-22T08:23:30;17.80;99.90
39825;DHT22;25503;52.532;13.640;2023-07-22T08:25:56;17.90;99.90
39825;DHT22;25503;52.532;13.640;2023-07-22T08:28:22;17.80;99.90
39825;DHT22;25503;52.532;13.640;2023-07-22T08:30:48;17.80;99.90
39825;DHT22;25503;52.532;13.640;2023-07-22T08:33:15;17.80;99.90
39825;DHT22;25503;52.532;13.640;2023-07-22T08:35:41;17.70;99.90
39825;DHT22;25503;52.532;13.640;2023-07-22T08:38:07;17.70;99.90
39825;DHT22;25503;52.532;13.640;2023-07-22T08:40:38;17.70;99.90
39825;DHT22;25503;52.532;13.640;2023-07-22T08:43:05;17.80;99.90
39825;DHT22;25503;52.532;13.640;2023-07-22T08:45:33;17.90;99.90
39825;DHT22;25503;52.532;13.640;2023-07-22T08:48:07;18.00;99.90
39825;DHT22;25503;52.532;13.640;2023-07-22T08:53:13;18.00;99.90
39825;DHT22;25503;52.532;13.640;2023-07-22T08:55:39;18.10;99.90
39825;DHT22;25503;52.532;13.640;2023-07-22T08:58:08;18.20;99.90
39825;DHT22;25503;52.532;13.640;2023-07-22T09:00:35;18.20;99.90
39825;DHT22;25503;52.532;13.640;2023-07-22T09:03:01;18.30;99.90
39825;DHT22;25503;52.532;13.640;2023-07-22T09:05:27;18.30;99.90
39825;DHT22;25503;52.532;13.640;2023-07-22T09:07:54;18.40;99.90
39825;DHT22;25503;52.532;13.640;2023-07-22T09:10:21;18.50;99.90
39825;DHT22;25503;52.532;13.640;2023-07-22T09:12:47;18.50;99.90
39825;DHT22;25503;52.532;13.640;2023-07-22T09:15:13;18.60;99.90
39825;DHT22;25503;52.532;13.640;2023-07-22T09:17:39;18.50;99.90
39825;DHT22;25503;52.532;13.640;2023-07-22T09:20:06;18.50;99.90
39825;DHT22;25503;52.532;13.640;2023-07-22T09:22:32;18.50;99.90
39825;DHT22;25503;52.532;13.640;2023-07-22T09:27:53;18.50;99.90
39825;DHT22;25503;52.532;13.640;2023-07-22T09:30:25;18.50;99.90
39825;DHT22;25503;52.532;13.640;2023-07-22T09:32:52;18.50;99.90
39825;DHT22;25503;52.532;13.640;2023-07-22T09:35:19;18.60;99.90
39825;DHT22;25503;52.532;13.640;2023-07-22T09:37:45;18.70;99.90
39825;DHT22;25503;52.532;13.640;2023-07-22T09:40:24;18.90;99.90
39825;DHT22;25503;52.532;13.640;2023-07-22T09:42:51;19.10;99.90
39825;DHT22;25503;52.532;13.640;2023-07-22T09:45:18;19.20;99.90
39825;DHT22;25503;52.532;13.640;2023-07-22T09:47:46;19.20;99.90
39825;DHT22;25503;52.532;13.640;2023-07-22T09:50:15;19.20;99.90
39825;DHT22;25503;52.532;13.640;2023-07-22T09:52:49;19.10;99.90
39825;DHT22;25503;52.532;13.640;2023-07-22T09:55:16;19.10;99.90
39825;DHT22;25503;52.532;13.640;2023-07-22T09:57:48;19.10;99.90
39825;DHT22;25503;52.532;13.640;2023-07-22T10:00:16;19.20;99.90
39825;DHT22;25503;52.532;13.640;2023-07-22T10:02:43;19.30;99.90
39825;DHT22;25503;52.532;13.640;2023-07-22T10:05:14;19.30;99.90
39825;DHT22;25503;52.532;13.640;2023-07-22T10:07:54;19.30;99.90
39825;DHT22;25503;52.532;13.640;2023-07-22T10:13:19;19.10;99.90
39825;DHT22;25503;52.532;13.640;2023-07-22T10:15:45;19.10;99.90
39825;DHT22;25503;52.532;13.640;2023-07-22T10:18:11;19.20;99.90
39825;DHT22;25503;52.532;13.640;2023-07-22T10:20:38;19.30;99.90
39825;DHT22;25503;52.532;13.640;2023-07-22T10:23:06;19.40;99.90
39825;DHT22;25503;52.532;13.640;2023-07-22T10:25:33;19.40;99.90
39825;DHT22;25503;52.532;13.640;2023-07-22T10:27:59;19.30;99.90
39825;DHT22;25503;52.532;13.640;2023-07-22T10:30:24;19.30;99.90
39825;DHT22;25503;52.532;13.640;2023-07-22T10:32:54;19.30;99.90
39825;DHT22;25503;52.532;13.640;2023-07-22T10:38:17;19.40;99.90
39825;DHT22;25503;52.532;13.640;2023-07-22T10:40:53;19.40;99.90
39825;DHT22;25503;52.532;13.640;2023-07-22T10:43:39;19.50;99.90
39825;DHT22;25503;52.532;13.640;2023-07-22T10:46:10;19.50;99.90
39825;DHT22;25503;52.532;13.640;2023-07-22T10:48:38;19.70;99.90
39825;DHT22;25503;52.532;13.640;2023-07-22T10:51:07;20.00;99.90
39825;DHT22;25503;52.532;13.640;2023-07-22T10:53:32;20.40;99.90
39825;DHT22;25503;52.532;13.640;2023-07-22T10:56:14;20.70;99.90
39825;DHT22;25503;52.532;13.640;2023-07-22T10:58:56;21.00;99.90
39825;DHT22;25503;52.532;13.640;2023-07-22T11:04:22;21.40;99.90
39825;DHT22;25503;52.532;13.640;2023-07-22T11:06:59;21.20;99.90
39825;DHT22;25503;52.532;13.640;2023-07-22T11:11:56;21.00;99.90
39825;DHT22;25503;52.532;13.640;2023-07-22T11:14:30;21.10;99.90
39825;DHT22;25503;52.532;13.640;2023-07-22T11:16:57;21.30;99.90
39825;DHT22;25503;52.532;13.640;2023-07-22T11:19:24;21.30;99.90
39825;DHT22;25503;52.532;13.640;2023-07-22T11:21:51;21.20;99.90
39825;DHT22;25503;52.532;13.640;2023-07-22T11:24:18;21.00;99.90
39825;DHT22;25503;52.532;13.640;2023-07-22T11:26:45;20.80;99.90
39825;DHT22;25503;52.532;13.640;2023-07-22T11:29:11;20.80;99.90
39825;DHT22;25503;52.532;13.640;2023-07-22T11:31:39;20.90;99.90
39825;DHT22;25503;52.532;13.640;2023-07-22T11:34:19;21.10;99.90
39825;DHT22;25503;52.532;13.640;2023-07-22T11:36:45;21.20;99.90
39825;DHT22;25503;52.532;13.640;2023-07-22T11:39:13;21.20;99.90
39825;DHT22;25503;52.532;13.640;2023-07-22T11:41:39;21.10;99.90
39825;DHT22;25503;52.532;13.640;2023-07-22T11:44:08;21.10;99.90
39825;DHT22;25503;52.532;13.640;2023-07-22T11:49:35;20.90;99.90
39825;DHT22;25503;52.532;13.640;2023-07-22T11:52:26;21.00;99.90
39825;DHT22;25503;52.532;13.640;2023-07-22T11:54:51;21.20;99.90
39825;DHT22;25503;52.532;13.640;2023-07-22T11:57:21;21.40;99.90
39825;DHT22;25503;52.532;13.640;2023-07-22T11:59:48;21.60;99.90
39825;DHT22;25503;52.532;13.640;2023-07-22T12:02:15;21.90;99.90
39825;DHT22;25503;52.532;13.640;2023-07-22T12:04:42;22.20;99.90
39825;DHT22;25503;52.532;13.640;2023-07-22T12:07:23;22.50;99.90
39825;DHT22;25503;52.532;13.640;2023-07-22T12:09:49;22.60;99.90
39825;DHT22;25503;52.532;13.640;2023-07-22T12:12:14;22.60;99.90
39825;DHT22;25503;52.532;13.640;2023-07-22T12:14:41;22.70;99.90
39825;DHT22;25503;52.532;13.640;2023-07-22T12:17:08;22.80;99.90
39825;DHT22;25503;52.532;13.640;2023-07-22T12:19:34;22.70;99.90
39825;DHT22;25503;52.532;13.640;2023-07-22T12:22:00;22.80;99.90
39825;DHT22;25503;52.532;13.640;2023-07-22T12:24:27;22.90;99.90
39825;DHT22;25503;52.532;13.640;2023-07-22T12:26:53;22.80;99.90
39825;DHT22;25503;52.532;13.640;2023-07-22T12:29:19;22.80;99.90
39825;DHT22;25503;52.532;13.640;2023-07-22T12:31:44;22.50;99.90
39825;DHT22;25503;52.532;13.640;2023-07-22T12:34:10;22.50;99.90
39825;DHT22;25503;52.532;13.640;2023-07-22T12:36:36;22.50;99.90
39825;DHT22;25503;52.532;13.640;2023-07-22T12:39:01;22.30;99.90
39825;DHT22;25503;52.532;13.640;2023-07-22T12:41:27;22.20;99.90
39825;DHT22;25503;52.532;13.640;2023-07-22T12:43:52;22.30;99.90
39825;DHT22;25503;52.532;13.640;2023-07-22T12:46:18;22.40;99.90
39825;DHT22;25503;52.532;13.640;2023-07-22T12:48:44;22.40;99.90
39825;DHT22;25503;52.532;13.640;2023-07-22T12:51:09;22.30;99.90
39825;DHT22;25503;52.532;13.640;2023-07-22T12:53:35;22.40;99.90
39825;DHT22;25503;52.532;13.640;2023-07-22T12:56:01;22.50;99.90
39825;DHT22;25503;52.532;13.640;2023-07-22T12:58:28;22.60;99.90
39825;DHT22;25503;52.532;13.640;2023-07-22T13:00:54;22.70;99.90
39825;DHT22;25503;52.532;13.640;2023-07-22T13:03:20;22.80;99.90
39825;DHT22;25503;52.532;13.640;2023-07-22T13:05:45;22.90;99.90
39825;DHT22;25503;52.532;13.640;2023-07-22T13:08:11;22.90;99.90
39825;DHT22;25503;52.532;13.640;2023-07-22T13:10:36;22.80;99.90
39825;DHT22;25503;52.532;13.640;2023-07-22T13:13:05;22.60;99.90
39825;DHT22;25503;52.532;13.640;2023-07-22T13:15:31;22.60;99.90
39825;DHT22;25503;52.532;13.640;2023-07-22T13:17:57;22.60;99.90
39825;DHT22;25503;52.532;13.640;2023-07-22T13:20:23;22.50;99.90
39825;DHT22;25503;52.532;13.640;2023-07-22T13:22:48;22.40;99.90
39825;DHT22;25503;52.532;13.640;2023-07-22T13:25:14;22.30;99.90
39825;DHT22;25503;52.532;13.640;2023-07-22T13:27:39;22.20;99.90
39825;DHT22;25503;52.532;13.640;2023-07-22T13:30:07;22.00;99.90
39825;DHT22;25503;52.532;13.640;2023-07-22T13:32:32;22.00;99.90
39825;DHT22;25503;52.532;13.640;2023-07-22T13:34:58;21.90;99.90
39825;DHT22;25503;52.532;13.640;2023-07-22T13:37:23;21.90;99.90
39825;DHT22;25503;52.532;13.640;2023-07-22T13:39:49;21.90;99.90
39825;DHT22;25503;52.532;13.640;2023-07-22T13:42:15;22.00;99.90
39825;DHT22;25503;52.532;13.640;2023-07-22T13:44:40;22.10;99.90
39825;DHT22;25503;52.532;13.640;2023-07-22T13:47:06;22.10;99.90
39825;DHT22;25503;52.532;13.640;2023-07-22T13:49:31;22.20;99.90
39825;DHT22;25503;52.532;13.640;2023-07-22T13:51:57;22.20;99.90
39825;DHT22;25503;52.532;13.640;2023-07-22T13:54:22;22.20;99.90
39825;DHT22;25503;52.532;13.640;2023-07-22T13:56:48;22.30;99.90
39825;DHT22;25503;52.532;13.640;2023-07-22T13:59:14;22.30;99.90
39825;DHT22;25503;52.532;13.640;2023-07-22T14:01:39;22.30;99.90
39825;DHT22;25503;52.532;13.640;2023-07-22T14:04:05;22.50;99.90
39825;DHT22;25503;52.532;13.640;2023-07-22T14:06:31;22.60;99.90
39825;DHT22;25503;52.532;13.640;2023-07-22T14:08:58;22.80;99.90
39825;DHT22;25503;52.532;13.640;2023-07-22T14:11:23;22.80;99.90
39825;DHT22;25503;52.532;13.640;2023-07-22T14:13:49;22.80;99.90
39825;DHT22;25503;52.532;13.640;2023-07-22T14:16:17;22.90;99.90
39825;DHT22;25503;52.532;13.640;2023-07-22T14:18:43;22.80;99.90
39825;DHT22;25503;52.532;13.640;2023-07-22T14:21:09;22.80;99.90
39825;DHT22;25503;52.532;13.640;2023-07-22T14:23:36;22.60;99.90
39825;DHT22;25503;52.532;13.640;2023-07-22T14:26:02;22.50;99.90
39825;DHT22;25503;52.532;13.640;2023-07-22T14:28:27;22.30;99.90
39825;DHT22;25503;52.532;13.640;2023-07-22T14:30:53;22.20;99.90
39825;DHT22;25503;52.532;13.640;2023-07-22T14:33:19;22.10;99.90
39825;DHT22;25503;52.532;13.640;2023-07-22T14:35:44;22.10;99.90
39825;DHT22;25503;52.532;13.640;2023-07-22T14:38:10;22.10;99.90
39825;DHT22;25503;52.532;13.640;2023-07-22T14:40:36;22.00;99.90
39825;DHT22;25503;52.532;13.640;2023-07-22T14:43:02;22.00;99.90
39825;DHT22;25503;52.532;13.640;2023-07-22T14:45:28;22.00;99.90
39825;DHT22;25503;52.532;13.640;2023-07-22T14:47:53;22.00;99.90
39825;DHT22;25503;52.532;13.640;2023-07-22T14:50:19;21.90;99.90
39825;DHT22;25503;52.532;13.640;2023-07-22T14:52:45;21.80;99.90
39825;DHT22;25503;52.532;13.640;2023-07-22T14:55:10;21.70;99.90
39825;DHT22;25503;52.532;13.640;2023-07-22T14:57:36;21.70;99.90
39825;DHT22;25503;52.532;13.640;2023-07-22T15:00:02;21.80;99.90
39825;DHT22;25503;52.532;13.640;2023-07-22T15:02:27;21.90;99.90
39825;DHT22;25503;52.532;13.640;2023-07-22T15:04:53;22.00;99.90
39825;DHT22;25503;52.532;13.640;2023-07-22T15:07:19;22.10;99.90
39825;DHT22;25503;52.532;13.640;2023-07-22T15:09:44;22.10;99.90
39825;DHT22;25503;52.532;13.640;2023-07-22T15:12:10;22.10;99.90
39825;DHT22;25503;52.532;13.640;2023-07-22T15:14:36;22.10;99.90
39825;DHT22;25503;52.532;13.640;2023-07-22T15:17:02;22.00;99.90
39825;DHT22;25503;52.532;13.640;2023-07-22T15:19:28;21.90;99.90
39825;DHT22;25503;52.532;13.640;2023-07-22T15:21:53;21.80;99.90
39825;DHT22;25503;52.532;13.640;2023-07-22T15:24:19;21.80;99.90
39825;DHT22;25503;52.532;13.640;2023-07-22T15:26:44;21.70;99.90
39825;DHT22;25503;52.532;13.640;2023-07-22T15:29:10;21.60;99.90
39825;DHT22;25503;52.532;13.640;2023-07-22T15:31:36;21.60;99.90